sensor_id;sensor_type;location;lat;lon;timestamp;P1;durP1;ratioP1;P2;durP2;ratioP2
36629;SDS011;36256;42.154;23.002;2023-02-28T00:01:25;7.07;;;1.98;;
36629;SDS011;36256;42.154;23.002;2023-02-28T00:03:53;9.82;;;2.83;;
36629;SDS011;36256;42.154;23.002;2023-02-28T00:06:19;5.20;;;1.90;;
36629;SDS011;36256;42.154;23.002;2023-02-28T00:08:47;7.47;;;2.28;;
36629;SDS011;36256;42.154;23.002;2023-02-28T00:11:14;7.25;;;2.10;;
36629;SDS011;36256;42.154;23.002;2023-02-28T00:13:43;5.78;;;1.95;;
36629;SDS011;36256;42.154;23.002;2023-02-28T00:16:16;6.47;;;2.10;;
36629;SDS011;36256;42.154;23.002;2023-02-28T00:18:47;5.72;;;1.88;;
36629;SDS011;36256;42.154;23.002;2023-02-28T00:21:15;6.70;;;2.00;;
36629;SDS011;36256;42.154;23.002;2023-02-28T00:23:42;5.80;;;1.52;;
36629;SDS011;36256;42.154;23.002;2023-02-28T00:26:10;3.90;;;1.70;;
36629;SDS011;36256;42.154;23.002;2023-02-28T00:28:36;7.47;;;1.88;;
36629;SDS011;36256;42.154;23.002;2023-02-28T00:31:03;7.05;;;1.98;;
36629;SDS011;36256;42.154;23.002;2023-02-28T00:33:30;5.32;;;1.80;;
36629;SDS011;36256;42.154;23.002;2023-02-28T00:36:01;6.55;;;1.60;;
36629;SDS011;36256;42.154;23.002;2023-02-28T00:38:37;6.80;;;1.80;;
36629;SDS011;36256;42.154;23.002;2023-02-28T00:41:04;6.57;;;1.77;;
36629;SDS011;36256;42.154;23.002;2023-02-28T00:43:32;5.40;;;1.50;;
36629;SDS011;36256;42.154;23.002;2023-02-28T00:46:00;4.88;;;1.50;;
36629;SDS011;36256;42.154;23.002;2023-02-28T00:48:27;6.10;;;1.90;;
36629;SDS011;36256;42.154;23.002;2023-02-28T00:50:54;8.00;;;1.60;;
36629;SDS011;36256;42.154;23.002;2023-02-28T00:53:21;4.18;;;1.70;;
36629;SDS011;36256;42.154;23.002;2023-02-28T00:55:48;4.85;;;1.63;;
36629;SDS011;36256;42.154;23.002;2023-02-28T00:58:16;4.45;;;1.83;;
36629;SDS011;36256;42.154;23.002;2023-02-28T01:00:43;7.05;;;1.60;;
36629;SDS011;36256;42.154;23.002;2023-02-28T01:03:09;7.03;;;1.85;;
36629;SDS011;36256;42.154;23.002;2023-02-28T01:05:36;5.72;;;1.90;;
36629;SDS011;36256;42.154;23.002;2023-02-28T01:08:03;6.60;;;2.13;;
36629;SDS011;36256;42.154;23.002;2023-02-28T01:10:30;3.83;;;1.80;;
36629;SDS011;36256;42.154;23.002;2023-02-28T01:12:57;7.85;;;1.85;;
36629;SDS011;36256;42.154;23.002;2023-02-28T01:15:24;9.68;;;1.95;;
36629;SDS011;36256;42.154;23.002;2023-02-28T01:17:51;6.88;;;1.80;;
36629;SDS011;36256;42.154;23.002;2023-02-28T01:20:17;6.65;;;2.05;;
36629;SDS011;36256;42.154;23.002;2023-02-28T01:22:44;12.00;;;2.00;;
36629;SDS011;36256;42.154;23.002;2023-02-28T01:25:11;8.23;;;2.38;;
36629;SDS011;36256;42.154;23.002;2023-02-28T01:27:37;3.65;;;1.98;;
36629;SDS011;36256;42.154;23.002;2023-02-28T01:30:09;9.52;;;2.05;;
36629;SDS011;36256;42.154;23.002;2023-02-28T01:32:36;6.22;;;1.75;;
36629;SDS011;36256;42.154;23.002;2023-02-28T01:35:03;5.40;;;2.22;;
36629;SDS011;36256;42.154;23.002;2023-02-28T01:37:30;6.07;;;1.80;;
36629;SDS011;36256;42.154;23.002;2023-02-28T01:39:57;5.95;;;1.60;;
36629;SDS011;36256;42.154;23.002;2023-02-28T01:42:24;6.57;;;1.63;;
36629;SDS011;36256;42.154;23.002;2023-02-28T01:47:27;7.32;;;2.00;;
36629;SDS011;36256;42.154;23.002;2023-02-28T01:49:58;7.97;;;2.13;;
36629;SDS011;36256;42.154;23.002;2023-02-28T01:52:27;6.45;;;2.28;;
36629;SDS011;36256;42.154;23.002;2023-02-28T01:54:55;6.63;;;2.20;;
36629;SDS011;36256;42.154;23.002;2023-02-28T01:57:29;10.85;;;2.45;;
36629;SDS011;36256;42.154;23.002;2023-02-28T02:00:05;7.68;;;2.40;;
36629;SDS011;36256;42.154;23.002;2023-02-28T02:02:36;6.03;;;2.90;;
36629;SDS011;36256;42.154;23.002;2023-02-28T02:05:05;5.70;;;2.67;;
36629;SDS011;36256;42.154;23.002;2023-02-28T02:07:37;7.07;;;2.90;;
36629;SDS011;36256;42.154;23.002;2023-02-28T02:10:10;9.95;;;3.30;;
36629;SDS011;36256;42.154;23.002;2023-02-28T02:15:39;9.10;;;3.50;;
36629;SDS011;36256;42.154;23.002;2023-02-28T02:18:16;8.25;;;3.88;;
36629;SDS011;36256;42.154;23.002;2023-02-28T02:24:03;7.65;;;3.17;;
36629;SDS011;36256;42.154;23.002;2023-02-28T02:32:21;10.80;;;4.32;;
36629;SDS011;36256;42.154;23.002;2023-02-28T02:35:27;10.05;;;3.60;;
36629;SDS011;36256;42.154;23.002;2023-02-28T02:40:42;10.75;;;3.85;;
36629;SDS011;36256;42.154;23.002;2023-02-28T02:43:18;11.82;;;4.03;;
36629;SDS011;36256;42.154;23.002;2023-02-28T02:45:53;7.60;;;3.85;;
36629;SDS011;36256;42.154;23.002;2023-02-28T02:48:27;7.53;;;4.10;;
36629;SDS011;36256;42.154;23.002;2023-02-28T02:50:58;9.18;;;3.85;;
36629;SDS011;36256;42.154;23.002;2023-02-28T02:53:35;8.63;;;4.03;;
36629;SDS011;36256;42.154;23.002;2023-02-28T02:56:33;10.18;;;4.60;;
36629;SDS011;36256;42.154;23.002;2023-02-28T02:59:02;10.85;;;4.60;;
36629;SDS011;36256;42.154;23.002;2023-02-28T03:01:32;10.80;;;4.20;;
36629;SDS011;36256;42.154;23.002;2023-02-28T03:04:02;12.45;;;4.95;;
36629;SDS011;36256;42.154;23.002;2023-02-28T03:06:32;12.32;;;4.45;;
36629;SDS011;36256;42.154;23.002;2023-02-28T03:08:59;12.82;;;4.50;;
36629;SDS011;36256;42.154;23.002;2023-02-28T03:13:56;9.20;;;4.95;;
36629;SDS011;36256;42.154;23.002;2023-02-28T03:16:59;14.35;;;6.05;;
36629;SDS011;36256;42.154;23.002;2023-02-28T03:19:42;11.80;;;7.18;;
36629;SDS011;36256;42.154;23.002;2023-02-28T03:24:56;41.22;;;26.45;;
36629;SDS011;36256;42.154;23.002;2023-02-28T03:27:57;48.97;;;31.17;;
36629;SDS011;36256;42.154;23.002;2023-02-28T03:30:33;17.52;;;10.93;;
36629;SDS011;36256;42.154;23.002;2023-02-28T03:33:18;12.43;;;7.22;;
36629;SDS011;36256;42.154;23.002;2023-02-28T03:35:53;12.77;;;7.65;;
36629;SDS011;36256;42.154;23.002;2023-02-28T03:38:33;10.68;;;6.60;;
36629;SDS011;36256;42.154;23.002;2023-02-28T03:43:48;14.05;;;6.38;;
36629;SDS011;36256;42.154;23.002;2023-02-28T03:46:22;11.98;;;6.90;;
36629;SDS011;36256;42.154;23.002;2023-02-28T03:49:03;7.90;;;5.40;;
36629;SDS011;36256;42.154;23.002;2023-02-28T03:51:35;10.52;;;4.50;;
36629;SDS011;36256;42.154;23.002;2023-02-28T03:54:06;7.03;;;3.90;;
36629;SDS011;36256;42.154;23.002;2023-02-28T03:56:41;8.25;;;3.85;;
36629;SDS011;36256;42.154;23.002;2023-02-28T03:59:15;8.68;;;4.07;;
36629;SDS011;36256;42.154;23.002;2023-02-28T04:01:47;8.90;;;6.10;;
36629;SDS011;36256;42.154;23.002;2023-02-28T04:04:15;15.07;;;6.60;;
36629;SDS011;36256;42.154;23.002;2023-02-28T04:06:43;9.73;;;5.90;;
36629;SDS011;36256;42.154;23.002;2023-02-28T04:09:12;11.98;;;5.50;;
36629;SDS011;36256;42.154;23.002;2023-02-28T04:11:41;13.10;;;4.97;;
36629;SDS011;36256;42.154;23.002;2023-02-28T04:14:10;10.38;;;6.50;;
36629;SDS011;36256;42.154;23.002;2023-02-28T04:16:39;17.08;;;8.20;;
36629;SDS011;36256;42.154;23.002;2023-02-28T04:19:07;14.25;;;7.25;;
36629;SDS011;36256;42.154;23.002;2023-02-28T04:21:40;12.52;;;5.60;;
36629;SDS011;36256;42.154;23.002;2023-02-28T04:24:18;9.77;;;5.07;;
36629;SDS011;36256;42.154;23.002;2023-02-28T04:26:50;12.35;;;8.25;;
36629;SDS011;36256;42.154;23.002;2023-02-28T04:29:19;10.27;;;5.13;;
36629;SDS011;36256;42.154;23.002;2023-02-28T04:31:50;10.55;;;4.70;;
36629;SDS011;36256;42.154;23.002;2023-02-28T04:34:20;8.60;;;4.35;;
36629;SDS011;36256;42.154;23.002;2023-02-28T04:36:47;5.10;;;3.30;;
36629;SDS011;36256;42.154;23.002;2023-02-28T04:39:36;7.43;;;3.33;;
36629;SDS011;36256;42.154;23.002;2023-02-28T04:42:03;5.72;;;3.20;;
36629;SDS011;36256;42.154;23.002;2023-02-28T04:44:30;6.93;;;3.28;;
36629;SDS011;36256;42.154;23.002;2023-02-28T04:46:57;7.70;;;3.15;;
36629;SDS011;36256;42.154;23.002;2023-02-28T04:49:24;7.60;;;3.72;;
36629;SDS011;36256;42.154;23.002;2023-02-28T04:51:51;13.48;;;8.18;;
36629;SDS011;36256;42.154;23.002;2023-02-28T04:54:19;15.43;;;8.57;;
36629;SDS011;36256;42.154;23.002;2023-02-28T04:56:46;14.32;;;9.43;;
36629;SDS011;36256;42.154;23.002;2023-02-28T04:59:16;14.88;;;6.53;;
36629;SDS011;36256;42.154;23.002;2023-02-28T05:01:47;12.65;;;6.60;;
36629;SDS011;36256;42.154;23.002;2023-02-28T05:04:15;12.25;;;6.88;;
36629;SDS011;36256;42.154;23.002;2023-02-28T05:06:42;16.85;;;9.00;;
36629;SDS011;36256;42.154;23.002;2023-02-28T05:09:08;22.73;;;11.70;;
36629;SDS011;36256;42.154;23.002;2023-02-28T05:11:38;20.60;;;11.02;;
36629;SDS011;36256;42.154;23.002;2023-02-28T05:14:15;13.40;;;7.85;;
36629;SDS011;36256;42.154;23.002;2023-02-28T05:16:42;15.90;;;10.05;;
36629;SDS011;36256;42.154;23.002;2023-02-28T05:19:08;17.77;;;11.18;;
36629;SDS011;36256;42.154;23.002;2023-02-28T05:24:05;27.40;;;16.33;;
36629;SDS011;36256;42.154;23.002;2023-02-28T05:26:36;28.70;;;18.23;;
36629;SDS011;36256;42.154;23.002;2023-02-28T05:29:04;44.33;;;25.60;;
36629;SDS011;36256;42.154;23.002;2023-02-28T05:31:31;34.50;;;20.85;;
36629;SDS011;36256;42.154;23.002;2023-02-28T05:36:25;22.45;;;12.77;;
36629;SDS011;36256;42.154;23.002;2023-02-28T05:38:52;20.52;;;9.82;;
36629;SDS011;36256;42.154;23.002;2023-02-28T05:41:19;21.85;;;11.40;;
36629;SDS011;36256;42.154;23.002;2023-02-28T05:43:47;24.40;;;11.88;;
36629;SDS011;36256;42.154;23.002;2023-02-28T05:46:15;25.45;;;14.15;;
36629;SDS011;36256;42.154;23.002;2023-02-28T05:48:45;47.40;;;22.30;;
36629;SDS011;36256;42.154;23.002;2023-02-28T05:51:14;50.45;;;24.67;;
36629;SDS011;36256;42.154;23.002;2023-02-28T05:53:42;41.22;;;21.27;;
36629;SDS011;36256;42.154;23.002;2023-02-28T05:56:09;44.22;;;24.05;;
36629;SDS011;36256;42.154;23.002;2023-02-28T05:58:36;64.28;;;32.42;;
36629;SDS011;36256;42.154;23.002;2023-02-28T06:03:50;46.80;;;25.40;;
36629;SDS011;36256;42.154;23.002;2023-02-28T06:06:17;44.55;;;24.33;;
36629;SDS011;36256;42.154;23.002;2023-02-28T06:08:43;29.67;;;17.15;;
36629;SDS011;36256;42.154;23.002;2023-02-28T06:11:11;40.22;;;20.67;;
36629;SDS011;36256;42.154;23.002;2023-02-28T06:16:05;37.38;;;20.23;;
36629;SDS011;36256;42.154;23.002;2023-02-28T06:18:32;42.58;;;22.98;;
36629;SDS011;36256;42.154;23.002;2023-02-28T06:20:59;40.28;;;25.25;;
36629;SDS011;36256;42.154;23.002;2023-02-28T06:23:25;48.03;;;28.85;;
36629;SDS011;36256;42.154;23.002;2023-02-28T06:25:52;24.52;;;14.10;;
36629;SDS011;36256;42.154;23.002;2023-02-28T06:28:19;35.05;;;19.23;;
36629;SDS011;36256;42.154;23.002;2023-02-28T06:30:46;38.85;;;22.80;;
36629;SDS011;36256;42.154;23.002;2023-02-28T06:33:13;37.60;;;21.33;;
36629;SDS011;36256;42.154;23.002;2023-02-28T06:35:39;35.38;;;20.65;;
36629;SDS011;36256;42.154;23.002;2023-02-28T06:38:06;47.03;;;24.88;;
36629;SDS011;36256;42.154;23.002;2023-02-28T06:40:33;49.50;;;28.52;;
36629;SDS011;36256;42.154;23.002;2023-02-28T06:43:02;47.38;;;27.10;;
36629;SDS011;36256;42.154;23.002;2023-02-28T06:45:29;29.10;;;13.70;;
36629;SDS011;36256;42.154;23.002;2023-02-28T06:47:56;26.52;;;12.35;;
36629;SDS011;36256;42.154;23.002;2023-02-28T06:50:23;25.65;;;13.05;;
36629;SDS011;36256;42.154;23.002;2023-02-28T06:52:49;26.70;;;13.55;;
36629;SDS011;36256;42.154;23.002;2023-02-28T06:55:20;26.23;;;14.52;;
36629;SDS011;36256;42.154;23.002;2023-02-28T06:57:47;28.40;;;14.88;;
36629;SDS011;36256;42.154;23.002;2023-02-28T07:00:13;31.60;;;17.80;;
36629;SDS011;36256;42.154;23.002;2023-02-28T07:02:40;23.85;;;14.38;;
36629;SDS011;36256;42.154;23.002;2023-02-28T07:05:07;25.17;;;11.33;;
36629;SDS011;36256;42.154;23.002;2023-02-28T07:07:34;22.45;;;11.65;;
36629;SDS011;36256;42.154;23.002;2023-02-28T07:10:04;23.08;;;11.70;;
36629;SDS011;36256;42.154;23.002;2023-02-28T07:12:31;25.00;;;12.02;;
36629;SDS011;36256;42.154;23.002;2023-02-28T07:14:58;23.63;;;12.73;;
36629;SDS011;36256;42.154;23.002;2023-02-28T07:17:25;22.13;;;11.48;;
36629;SDS011;36256;42.154;23.002;2023-02-28T07:19:52;24.33;;;12.75;;
36629;SDS011;36256;42.154;23.002;2023-02-28T07:22:19;26.83;;;13.65;;
36629;SDS011;36256;42.154;23.002;2023-02-28T07:24:45;30.23;;;14.55;;
36629;SDS011;36256;42.154;23.002;2023-02-28T07:27:12;30.50;;;14.30;;
36629;SDS011;36256;42.154;23.002;2023-02-28T07:29:52;24.75;;;12.13;;
36629;SDS011;36256;42.154;23.002;2023-02-28T07:32:19;26.48;;;13.15;;
36629;SDS011;36256;42.154;23.002;2023-02-28T07:34:46;31.75;;;14.38;;
36629;SDS011;36256;42.154;23.002;2023-02-28T07:37:13;28.90;;;13.60;;
36629;SDS011;36256;42.154;23.002;2023-02-28T07:39:40;22.55;;;11.88;;
36629;SDS011;36256;42.154;23.002;2023-02-28T07:42:10;17.98;;;9.10;;
36629;SDS011;36256;42.154;23.002;2023-02-28T07:44:38;19.95;;;11.10;;
36629;SDS011;36256;42.154;23.002;2023-02-28T07:47:07;18.85;;;11.32;;
36629;SDS011;36256;42.154;23.002;2023-02-28T07:49:37;18.17;;;11.23;;
36629;SDS011;36256;42.154;23.002;2023-02-28T07:52:04;20.98;;;11.50;;
36629;SDS011;36256;42.154;23.002;2023-02-28T07:54:33;22.55;;;12.15;;
36629;SDS011;36256;42.154;23.002;2023-02-28T07:57:00;21.55;;;10.50;;
36629;SDS011;36256;42.154;23.002;2023-02-28T07:59:27;21.70;;;11.07;;
36629;SDS011;36256;42.154;23.002;2023-02-28T08:01:57;26.33;;;12.90;;
36629;SDS011;36256;42.154;23.002;2023-02-28T08:04:25;29.98;;;14.00;;
36629;SDS011;36256;42.154;23.002;2023-02-28T08:06:52;18.70;;;8.75;;
36629;SDS011;36256;42.154;23.002;2023-02-28T08:09:19;18.80;;;11.73;;
36629;SDS011;36256;42.154;23.002;2023-02-28T08:11:46;21.88;;;11.80;;
36629;SDS011;36256;42.154;23.002;2023-02-28T08:14:12;20.00;;;11.25;;
36629;SDS011;36256;42.154;23.002;2023-02-28T08:16:40;20.48;;;12.05;;
36629;SDS011;36256;42.154;23.002;2023-02-28T08:19:06;19.52;;;8.98;;
36629;SDS011;36256;42.154;23.002;2023-02-28T08:21:33;24.83;;;12.13;;
36629;SDS011;36256;42.154;23.002;2023-02-28T08:23:59;23.33;;;12.65;;
36629;SDS011;36256;42.154;23.002;2023-02-28T08:26:26;25.83;;;12.70;;
36629;SDS011;36256;42.154;23.002;2023-02-28T08:28:53;27.35;;;13.18;;
36629;SDS011;36256;42.154;23.002;2023-02-28T08:31:22;27.95;;;13.73;;
36629;SDS011;36256;42.154;23.002;2023-02-28T08:33:49;21.25;;;12.55;;
36629;SDS011;36256;42.154;23.002;2023-02-28T08:36:18;25.30;;;13.02;;
36629;SDS011;36256;42.154;23.002;2023-02-28T08:38:45;23.40;;;13.23;;
36629;SDS011;36256;42.154;23.002;2023-02-28T08:41:12;26.92;;;12.85;;
36629;SDS011;36256;42.154;23.002;2023-02-28T08:43:39;29.58;;;13.77;;
36629;SDS011;36256;42.154;23.002;2023-02-28T08:46:07;25.20;;;12.95;;
36629;SDS011;36256;42.154;23.002;2023-02-28T08:48:34;21.58;;;12.40;;
36629;SDS011;36256;42.154;23.002;2023-02-28T08:51:05;37.53;;;14.68;;
36629;SDS011;36256;42.154;23.002;2023-02-28T08:53:35;29.23;;;14.82;;
36629;SDS011;36256;42.154;23.002;2023-02-28T08:56:07;26.92;;;15.57;;
36629;SDS011;36256;42.154;23.002;2023-02-28T08:58:36;28.90;;;15.27;;
36629;SDS011;36256;42.154;23.002;2023-02-28T09:01:10;28.58;;;15.00;;
36629;SDS011;36256;42.154;23.002;2023-02-28T09:03:56;26.77;;;17.00;;
36629;SDS011;36256;42.154;23.002;2023-02-28T09:06:25;27.02;;;16.10;;
36629;SDS011;36256;42.154;23.002;2023-02-28T09:08:56;24.02;;;14.43;;
36629;SDS011;36256;42.154;23.002;2023-02-28T09:11:54;27.85;;;15.70;;
36629;SDS011;36256;42.154;23.002;2023-02-28T09:15:28;24.65;;;13.93;;
36629;SDS011;36256;42.154;23.002;2023-02-28T09:17:55;30.08;;;14.73;;
36629;SDS011;36256;42.154;23.002;2023-02-28T09:20:21;27.40;;;14.13;;
36629;SDS011;36256;42.154;23.002;2023-02-28T09:22:48;28.00;;;15.20;;
36629;SDS011;36256;42.154;23.002;2023-02-28T09:25:14;28.27;;;14.77;;
36629;SDS011;36256;42.154;23.002;2023-02-28T09:27:41;24.27;;;13.32;;
36629;SDS011;36256;42.154;23.002;2023-02-28T09:30:08;28.25;;;15.43;;
36629;SDS011;36256;42.154;23.002;2023-02-28T09:32:35;29.75;;;16.70;;
36629;SDS011;36256;42.154;23.002;2023-02-28T09:35:02;27.40;;;14.75;;
36629;SDS011;36256;42.154;23.002;2023-02-28T09:37:29;25.58;;;13.88;;
36629;SDS011;36256;42.154;23.002;2023-02-28T09:39:57;28.10;;;14.63;;
36629;SDS011;36256;42.154;23.002;2023-02-28T09:42:27;24.05;;;13.15;;
36629;SDS011;36256;42.154;23.002;2023-02-28T09:44:59;21.30;;;12.00;;
36629;SDS011;36256;42.154;23.002;2023-02-28T09:47:33;22.05;;;12.95;;
36629;SDS011;36256;42.154;23.002;2023-02-28T09:50:05;26.73;;;13.07;;
36629;SDS011;36256;42.154;23.002;2023-02-28T09:52:43;24.77;;;12.65;;
36629;SDS011;36256;42.154;23.002;2023-02-28T09:57:41;27.65;;;12.95;;
36629;SDS011;36256;42.154;23.002;2023-02-28T10:05:37;20.98;;;9.80;;
36629;SDS011;36256;42.154;23.002;2023-02-28T10:10:55;18.08;;;9.70;;
36629;SDS011;36256;42.154;23.002;2023-02-28T10:16:16;27.88;;;11.90;;
36629;SDS011;36256;42.154;23.002;2023-02-28T10:18:57;21.92;;;11.18;;
36629;SDS011;36256;42.154;23.002;2023-02-28T10:21:57;20.30;;;10.95;;
36629;SDS011;36256;42.154;23.002;2023-02-28T10:24:29;20.38;;;11.15;;
36629;SDS011;36256;42.154;23.002;2023-02-28T10:27:01;23.90;;;11.02;;
36629;SDS011;36256;42.154;23.002;2023-02-28T10:29:50;19.13;;;10.02;;
36629;SDS011;36256;42.154;23.002;2023-02-28T10:32:19;23.55;;;10.25;;
36629;SDS011;36256;42.154;23.002;2023-02-28T10:34:51;18.48;;;11.50;;
36629;SDS011;36256;42.154;23.002;2023-02-28T10:41:13;20.52;;;11.60;;
36629;SDS011;36256;42.154;23.002;2023-02-28T10:43:41;30.00;;;11.52;;
36629;SDS011;36256;42.154;23.002;2023-02-28T10:48:39;27.27;;;11.50;;
36629;SDS011;36256;42.154;23.002;2023-02-28T10:51:16;21.98;;;10.00;;
36629;SDS011;36256;42.154;23.002;2023-02-28T10:53:49;21.92;;;10.50;;
36629;SDS011;36256;42.154;23.002;2023-02-28T10:56:27;24.33;;;11.27;;
36629;SDS011;36256;42.154;23.002;2023-02-28T11:03:56;21.88;;;10.93;;
36629;SDS011;36256;42.154;23.002;2023-02-28T11:06:25;22.48;;;10.95;;
36629;SDS011;36256;42.154;23.002;2023-02-28T11:09:04;18.65;;;10.25;;
36629;SDS011;36256;42.154;23.002;2023-02-28T11:11:53;23.60;;;9.57;;
36629;SDS011;36256;42.154;23.002;2023-02-28T11:14:21;25.33;;;10.48;;
36629;SDS011;36256;42.154;23.002;2023-02-28T11:16:50;25.33;;;11.27;;
36629;SDS011;36256;42.154;23.002;2023-02-28T11:19:28;24.55;;;10.25;;
36629;SDS011;36256;42.154;23.002;2023-02-28T11:22:02;22.25;;;11.23;;
36629;SDS011;36256;42.154;23.002;2023-02-28T11:27:03;22.20;;;10.98;;
36629;SDS011;36256;42.154;23.002;2023-02-28T11:29:31;24.67;;;10.48;;
36629;SDS011;36256;42.154;23.002;2023-02-28T11:34:35;21.88;;;11.05;;
36629;SDS011;36256;42.154;23.002;2023-02-28T11:37:03;25.27;;;11.40;;
36629;SDS011;36256;42.154;23.002;2023-02-28T11:39:36;23.85;;;10.20;;
36629;SDS011;36256;42.154;23.002;2023-02-28T11:57:21;28.25;;;9.85;;
36629;SDS011;36256;42.154;23.002;2023-02-28T12:05:29;25.77;;;8.75;;
36629;SDS011;36256;42.154;23.002;2023-02-28T12:09:25;24.38;;;9.30;;
36629;SDS011;36256;42.154;23.002;2023-02-28T12:12:07;23.85;;;9.30;;
36629;SDS011;36256;42.154;23.002;2023-02-28T12:22:47;23.48;;;12.23;;
36629;SDS011;36256;42.154;23.002;2023-02-28T12:29:40;21.98;;;10.85;;
36629;SDS011;36256;42.154;23.002;2023-02-28T12:32:27;34.65;;;12.90;;
36629;SDS011;36256;42.154;23.002;2023-02-28T12:35:02;22.90;;;9.52;;
36629;SDS011;36256;42.154;23.002;2023-02-28T12:37:55;33.05;;;14.73;;
36629;SDS011;36256;42.154;23.002;2023-02-28T12:40:26;26.45;;;11.13;;
36629;SDS011;36256;42.154;23.002;2023-02-28T12:42:59;27.95;;;11.55;;
36629;SDS011;36256;42.154;23.002;2023-02-28T12:48:27;25.08;;;9.38;;
36629;SDS011;36256;42.154;23.002;2023-02-28T12:50:58;24.10;;;10.32;;
36629;SDS011;36256;42.154;23.002;2023-02-28T12:53:31;29.65;;;10.43;;
36629;SDS011;36256;42.154;23.002;2023-02-28T12:56:20;22.25;;;9.15;;
36629;SDS011;36256;42.154;23.002;2023-02-28T12:59:13;19.55;;;9.18;;
36629;SDS011;36256;42.154;23.002;2023-02-28T13:01:56;25.08;;;9.20;;
36629;SDS011;36256;42.154;23.002;2023-02-28T13:04:32;20.23;;;8.85;;
36629;SDS011;36256;42.154;23.002;2023-02-28T13:17:42;23.73;;;9.30;;
36629;SDS011;36256;42.154;23.002;2023-02-28T13:20:23;26.38;;;9.88;;
36629;SDS011;36256;42.154;23.002;2023-02-28T13:22:56;26.95;;;9.57;;
36629;SDS011;36256;42.154;23.002;2023-02-28T13:28:02;21.88;;;9.60;;
36629;SDS011;36256;42.154;23.002;2023-02-28T13:47:44;26.33;;;11.13;;
36629;SDS011;36256;42.154;23.002;2023-02-28T14:00:55;24.50;;;9.70;;
36629;SDS011;36256;42.154;23.002;2023-02-28T14:08:52;20.13;;;10.07;;
36629;SDS011;36256;42.154;23.002;2023-02-28T14:11:43;24.23;;;9.98;;
36629;SDS011;36256;42.154;23.002;2023-02-28T14:14:53;18.08;;;9.13;;
36629;SDS011;36256;42.154;23.002;2023-02-28T14:17:03;25.15;;;10.45;;
36629;SDS011;36256;42.154;23.002;2023-02-28T14:19:32;28.00;;;10.02;;
36629;SDS011;36256;42.154;23.002;2023-02-28T14:35:48;25.67;;;10.95;;
36629;SDS011;36256;42.154;23.002;2023-02-28T14:38:24;23.65;;;11.60;;
36629;SDS011;36256;42.154;23.002;2023-02-28T14:40:55;22.88;;;12.45;;
36629;SDS011;36256;42.154;23.002;2023-02-28T14:43:25;25.48;;;12.07;;
36629;SDS011;36256;42.154;23.002;2023-02-28T14:45:54;30.17;;;11.60;;
36629;SDS011;36256;42.154;23.002;2023-02-28T14:48:23;28.55;;;10.10;;
36629;SDS011;36256;42.154;23.002;2023-02-28T14:50:52;24.40;;;10.85;;
36629;SDS011;36256;42.154;23.002;2023-02-28T14:53:30;30.02;;;12.65;;
36629;SDS011;36256;42.154;23.002;2023-02-28T14:56:02;19.52;;;9.57;;
36629;SDS011;36256;42.154;23.002;2023-02-28T14:58:34;36.38;;;12.88;;
36629;SDS011;36256;42.154;23.002;2023-02-28T15:01:23;28.27;;;11.75;;
36629;SDS011;36256;42.154;23.002;2023-02-28T15:04:01;20.58;;;10.45;;
36629;SDS011;36256;42.154;23.002;2023-02-28T15:06:31;28.00;;;15.18;;
36629;SDS011;36256;42.154;23.002;2023-02-28T15:11:34;19.35;;;11.15;;
36629;SDS011;36256;42.154;23.002;2023-02-28T15:14:01;17.70;;;9.18;;
36629;SDS011;36256;42.154;23.002;2023-02-28T15:16:36;28.75;;;12.93;;
36629;SDS011;36256;42.154;23.002;2023-02-28T15:19:08;27.02;;;13.40;;
36629;SDS011;36256;42.154;23.002;2023-02-28T15:21:45;20.08;;;10.18;;
36629;SDS011;36256;42.154;23.002;2023-02-28T15:24:17;19.58;;;9.95;;
36629;SDS011;36256;42.154;23.002;2023-02-28T15:26:51;19.88;;;9.55;;
36629;SDS011;36256;42.154;23.002;2023-02-28T15:29:23;22.38;;;10.05;;
36629;SDS011;36256;42.154;23.002;2023-02-28T15:32:03;20.83;;;9.95;;
36629;SDS011;36256;42.154;23.002;2023-02-28T15:34:34;22.90;;;9.38;;
36629;SDS011;36256;42.154;23.002;2023-02-28T15:43:15;16.95;;;9.82;;
36629;SDS011;36256;42.154;23.002;2023-02-28T15:45:47;25.20;;;11.75;;
36629;SDS011;36256;42.154;23.002;2023-02-28T15:50:52;23.87;;;11.10;;
36629;SDS011;36256;42.154;23.002;2023-02-28T15:53:23;27.55;;;11.50;;
36629;SDS011;36256;42.154;23.002;2023-02-28T15:55:59;22.00;;;10.95;;
36629;SDS011;36256;42.154;23.002;2023-02-28T15:58:29;21.20;;;11.45;;
36629;SDS011;36256;42.154;23.002;2023-02-28T16:01:00;16.02;;;8.93;;
36629;SDS011;36256;42.154;23.002;2023-02-28T16:07:27;23.48;;;12.45;;
36629;SDS011;36256;42.154;23.002;2023-02-28T16:09:54;23.33;;;11.90;;
36629;SDS011;36256;42.154;23.002;2023-02-28T16:12:20;23.95;;;11.60;;
36629;SDS011;36256;42.154;23.002;2023-02-28T16:14:57;22.38;;;11.55;;
36629;SDS011;36256;42.154;23.002;2023-02-28T16:17:31;26.98;;;12.85;;
36629;SDS011;36256;42.154;23.002;2023-02-28T16:20:00;21.27;;;12.35;;
36629;SDS011;36256;42.154;23.002;2023-02-28T16:22:32;26.70;;;14.32;;
36629;SDS011;36256;42.154;23.002;2023-02-28T16:24:58;22.25;;;10.90;;
36629;SDS011;36256;42.154;23.002;2023-02-28T16:27:30;19.00;;;10.50;;
36629;SDS011;36256;42.154;23.002;2023-02-28T16:29:59;19.58;;;11.55;;
36629;SDS011;36256;42.154;23.002;2023-02-28T16:37:48;24.52;;;12.68;;
36629;SDS011;36256;42.154;23.002;2023-02-28T16:40:17;20.98;;;11.35;;
36629;SDS011;36256;42.154;23.002;2023-02-28T16:45:50;24.48;;;10.93;;
36629;SDS011;36256;42.154;23.002;2023-02-28T16:48:21;24.73;;;13.18;;
36629;SDS011;36256;42.154;23.002;2023-02-28T16:50:48;26.08;;;13.70;;
36629;SDS011;36256;42.154;23.002;2023-02-28T16:53:15;18.83;;;10.68;;
36629;SDS011;36256;42.154;23.002;2023-02-28T16:55:41;42.80;;;15.15;;
36629;SDS011;36256;42.154;23.002;2023-02-28T16:58:11;20.95;;;11.80;;
36629;SDS011;36256;42.154;23.002;2023-02-28T17:00:41;25.27;;;12.77;;
36629;SDS011;36256;42.154;23.002;2023-02-28T17:03:20;33.88;;;19.98;;
36629;SDS011;36256;42.154;23.002;2023-02-28T17:05:58;30.92;;;17.77;;
36629;SDS011;36256;42.154;23.002;2023-02-28T17:08:25;28.80;;;15.75;;
36629;SDS011;36256;42.154;23.002;2023-02-28T17:10:53;26.83;;;14.32;;
36629;SDS011;36256;42.154;23.002;2023-02-28T17:13:20;29.98;;;17.83;;
36629;SDS011;36256;42.154;23.002;2023-02-28T17:15:46;33.80;;;16.90;;
36629;SDS011;36256;42.154;23.002;2023-02-28T17:20:42;16.73;;;8.93;;
36629;SDS011;36256;42.154;23.002;2023-02-28T17:23:09;19.45;;;9.20;;
36629;SDS011;36256;42.154;23.002;2023-02-28T17:25:36;15.05;;;7.82;;
36629;SDS011;36256;42.154;23.002;2023-02-28T17:28:03;15.25;;;8.13;;
36629;SDS011;36256;42.154;23.002;2023-02-28T17:30:31;14.80;;;8.40;;
36629;SDS011;36256;42.154;23.002;2023-02-28T17:33:00;16.08;;;8.20;;
36629;SDS011;36256;42.154;23.002;2023-02-28T17:35:27;18.13;;;8.85;;
36629;SDS011;36256;42.154;23.002;2023-02-28T17:37:54;14.95;;;7.80;;
36629;SDS011;36256;42.154;23.002;2023-02-28T17:40:22;14.80;;;8.15;;
36629;SDS011;36256;42.154;23.002;2023-02-28T17:42:50;17.23;;;8.25;;
36629;SDS011;36256;42.154;23.002;2023-02-28T17:45:18;12.43;;;7.43;;
36629;SDS011;36256;42.154;23.002;2023-02-28T17:47:47;11.80;;;7.25;;